Time;durP1;ratioP1;P1;durP2;ratioP2;P2;SDS_P1;SDS_P2;PMS_P1;PMS_P2;Temp;Humidity;BMP_temperature;BMP_pressure;BME280_temperature;BME280_humidity;BME280_pressure;Samples;Min_cycle;Max_cycle;Signal;HPM_P1;HPM_P2
2022/05/27 00:02:10;;;;;;;6.72;3.00;;;13.70;99.90;;;;;;5073350;28;20473;-65
2022/05/27 00:04:36;;;;;;;4.47;2.72;;;13.70;99.90;;;;;;5106784;28;20098;-64
2022/05/27 00:07:02;;;;;;;7.72;3.22;;;13.60;99.90;;;;;;5089641;28;20118;-65
2022/05/27 00:09:28;;;;;;;6.90;2.90;;;13.60;99.90;;;;;;5101171;28;20058;-64
2022/05/27 00:11:53;;;;;;;5.32;2.95;;;13.60;99.90;;;;;;5092826;28;20126;-65
2022/05/27 00:14:19;;;;;;;6.22;2.90;;;13.60;99.90;;;;;;5092350;28;20060;-66
2022/05/27 00:16:45;;;;;;;8.45;2.95;;;13.60;99.90;;;;;;5092674;28;20109;-65
2022/05/27 00:19:10;;;;;;;7.65;3.00;;;13.60;99.90;;;;;;5105489;28;20098;-66
2022/05/27 00:21:36;;;;;;;6.65;3.10;;;13.50;99.90;;;;;;5147683;27;20372;-66
2022/05/27 00:24:01;;;;;;;6.28;2.97;;;13.50;99.90;;;;;;5140648;27;20381;-65
2022/05/27 00:26:27;;;;;;;3.90;2.60;;;13.50;99.90;;;;;;5094275;28;20131;-66
2022/05/27 00:28:53;;;;;;;5.15;3.10;;;13.50;99.90;;;;;;5092098;28;20052;-66
2022/05/27 00:31:20;;;;;;;5.30;2.70;;;13.40;99.90;;;;;;5109276;28;20060;-65
2022/05/27 00:33:46;;;;;;;5.53;2.58;;;13.40;99.90;;;;;;5092322;28;20059;-64
2022/05/27 00:36:12;;;;;;;7.75;2.55;;;13.40;99.90;;;;;;5092336;28;20060;-66
2022/05/27 00:38:39;;;;;;;5.78;2.67;;;13.40;99.90;;;;;;5099441;28;20047;-65
2022/05/27 00:41:05;;;;;;;5.20;2.58;;;13.30;99.90;;;;;;5113990;28;20051;-64
2022/05/27 00:43:30;;;;;;;7.40;2.63;;;13.30;99.90;;;;;;5147107;27;20051;-65
2022/05/27 00:46:04;;;;;;;5.25;2.50;;;13.30;99.90;;;;;;5113238;28;20060;-66
2022/05/27 00:48:33;;;;;;;6.63;3.05;;;13.30;99.90;;;;;;5102113;28;20054;-65
2022/05/27 00:50:59;;;;;;;3.75;2.58;;;13.30;99.90;;;;;;5093523;28;20055;-65
2022/05/27 00:53:45;;;;;;;6.13;2.67;;;13.30;99.90;;;;;;5092683;28;20070;-64
2022/05/27 00:56:13;;;;;;;4.63;2.67;;;13.30;99.90;;;;;;5094934;28;20062;-65
2022/05/27 00:58:52;;;;;;;7.10;3.30;;;13.30;99.90;;;;;;5127915;27;20108;-65
2022/05/27 01:01:18;;;;;;;6.30;2.90;;;13.30;99.90;;;;;;5113639;28;20126;-65
2022/05/27 01:03:44;;;;;;;5.72;3.50;;;13.30;99.90;;;;;;5105879;28;20083;-65
2022/05/27 01:06:10;;;;;;;6.78;3.03;;;13.30;99.90;;;;;;5104349;28;20104;-66
2022/05/27 01:08:36;;;;;;;6.43;3.10;;;13.30;99.90;;;;;;5110285;28;20055;-65
2022/05/27 01:11:04;;;;;;;5.00;3.28;;;13.20;99.90;;;;;;5135142;27;20120;-65
2022/05/27 01:13:55;;;;;;;7.60;3.58;;;13.20;99.90;;;;;;5108819;28;20066;-65
2022/05/27 01:16:38;;;;;;;6.63;3.40;;;13.20;99.90;;;;;;5092430;28;20044;-66
2022/05/27 01:22:03;;;;;;;9.70;3.60;;;13.20;99.90;;;;;;5113005;28;20086;-65
2022/05/27 01:24:40;;;;;;;11.35;4.13;;;13.20;99.90;;;;;;5113525;28;20059;-66
2022/05/27 01:27:09;;;;;;;9.43;4.00;;;13.10;99.90;;;;;;5144992;27;20056;-65
2022/05/27 01:29:34;;;;;;;10.40;3.90;;;13.10;99.90;;;;;;5075468;28;20056;-65
2022/05/27 01:32:39;;;;;;;10.52;4.38;;;13.10;99.90;;;;;;5091171;28;20056;-65
2022/05/27 01:35:15;;;;;;;7.93;4.00;;;13.00;99.90;;;;;;5066777;28;20496;-66
2022/05/27 01:37:58;;;;;;;8.98;4.35;;;13.00;99.90;;;;;;5091938;28;20055;-65
2022/05/27 01:40:33;;;;;;;7.65;3.88;;;12.90;99.90;;;;;;5113234;28;20062;-66
2022/05/27 01:43:05;;;;;;;7.43;3.65;;;12.90;99.90;;;;;;5112956;28;20058;-65
2022/05/27 01:45:43;;;;;;;9.90;3.80;;;12.90;99.90;;;;;;5100644;28;20056;-65
2022/05/27 01:48:20;;;;;;;12.27;3.70;;;12.90;99.90;;;;;;5098920;28;20072;-65
2022/05/27 01:50:54;;;;;;;9.80;4.10;;;12.80;99.90;;;;;;5105296;28;20056;-65
2022/05/27 01:53:37;;;;;;;8.65;4.05;;;12.80;99.90;;;;;;5088314;28;20052;-65
2022/05/27 01:56:05;;;;;;;;;;;12.80;99.90;;;;;;5072911;28;20122;-65
2022/05/27 01:58:36;;;;;;;12.13;3.78;;;12.80;99.90;;;;;;5084405;28;19920;-66
2022/05/27 02:01:05;;;;;;;8.93;3.72;;;12.70;99.90;;;;;;5107412;28;20260;-65
2022/05/27 02:03:36;;;;;;;15.30;4.05;;;12.70;99.90;;;;;;5113339;28;20063;-65
2022/05/27 02:06:19;;;;;;;6.75;3.75;;;12.70;99.90;;;;;;5094415;28;20063;-65
2022/05/27 02:08:58;;;;;;;8.77;3.95;;;12.70;99.90;;;;;;5109009;28;20488;-66
2022/05/27 02:11:25;;;;;;;12.98;4.78;;;12.70;99.90;;;;;;5113172;28;20051;-66
2022/05/27 02:14:08;;;;;;;14.15;4.32;;;12.80;99.90;;;;;;5094488;28;20508;-65
2022/05/27 02:16:38;;;;;;;11.30;3.78;;;12.80;99.90;;;;;;5091953;28;20048;-66
2022/05/27 02:19:13;;;;;;;11.18;4.03;;;12.80;99.90;;;;;;5107117;28;20055;-65
2022/05/27 02:21:49;;;;;;;10.23;3.47;;;12.80;99.90;;;;;;5143745;27;20122;-66
2022/05/27 02:24:20;;;;;;;13.45;4.15;;;12.80;99.90;;;;;;5145839;27;20051;-65
2022/05/27 02:26:54;;;;;;;12.82;3.90;;;12.80;99.90;;;;;;5145986;27;20490;-65
2022/05/27 02:29:24;;;;;;;8.55;3.70;;;12.80;99.90;;;;;;5107295;28;20059;-66
2022/05/27 02:31:53;;;;;;;10.90;3.72;;;12.70;99.90;;;;;;5091137;28;20064;-65
2022/05/27 02:37:33;;;;;;;12.98;3.60;;;12.70;99.90;;;;;;5095864;28;20052;-65
2022/05/27 02:40:01;;;;;;;13.63;3.40;;;12.60;99.90;;;;;;5111301;28;20056;-65
2022/05/27 02:42:53;;;;;;;11.05;3.13;;;12.70;99.90;;;;;;5099424;28;20441;-65
2022/05/27 02:45:26;;;;;;;16.02;4.15;;;12.50;99.90;;;;;;5149318;27;20142;-65
2022/05/27 02:47:54;;;;;;;15.77;3.88;;;12.50;99.90;;;;;;5128172;27;20433;-65
2022/05/27 02:50:38;;;;;;;10.98;3.90;;;12.40;99.90;;;;;;5110128;28;20439;-65
2022/05/27 02:53:21;;;;;;;10.88;3.88;;;12.40;99.90;;;;;;5096086;28;20487;-64
2022/05/27 02:56:01;;;;;;;18.15;3.88;;;12.40;99.90;;;;;;5095612;28;20048;-66
2022/05/27 02:58:29;;;;;;;11.60;3.70;;;12.30;99.90;;;;;;5136877;27;20047;-66
2022/05/27 03:00:55;;;;;;;13.32;4.18;;;12.30;99.90;;;;;;5103937;28;20543;-66
2022/05/27 03:03:20;;;;;;;9.93;4.05;;;12.20;99.90;;;;;;5095494;28;20048;-65
2022/05/27 03:06:15;;;;;;;16.25;3.97;;;12.30;99.90;;;;;;5095383;28;20055;-66
2022/05/27 03:09:08;;;;;;;15.77;4.07;;;12.20;99.90;;;;;;5092167;28;20055;-65
2022/05/27 03:11:50;;;;;;;14.18;4.18;;;12.30;99.90;;;;;;5109419;28;20063;-65
2022/05/27 03:14:36;;;;;;;10.75;3.95;;;12.30;99.90;;;;;;5115421;28;20051;-65
2022/05/27 03:17:12;;;;;;;11.77;4.15;;;12.30;99.90;;;;;;5148406;27;20551;-65
2022/05/27 03:19:58;;;;;;;12.20;4.07;;;12.20;99.90;;;;;;5113986;28;20155;-65
2022/05/27 03:23:01;;;;;;;15.43;4.03;;;12.20;99.90;;;;;;5075120;28;20458;-65
2022/05/27 03:25:54;;;;;;;14.73;4.45;;;12.20;99.90;;;;;;5093846;28;20056;-65
2022/05/27 03:28:28;;;;;;;14.18;4.40;;;12.20;99.90;;;;;;5105714;28;20071;-65
2022/05/27 03:31:23;;;;;;;18.83;4.88;;;12.20;99.90;;;;;;5146119;27;20051;-65
2022/05/27 03:34:23;;;;;;;10.45;4.32;;;12.20;99.90;;;;;;5148951;27;20407;-65
2022/05/27 03:37:19;;;;;;;11.32;3.78;;;12.20;99.90;;;;;;5148546;27;20131;-65
2022/05/27 03:40:01;;;;;;;11.38;3.97;;;12.20;99.90;;;;;;5128677;27;20052;-65
2022/05/27 03:42:29;;;;;;;14.13;4.17;;;12.20;99.90;;;;;;5108303;28;20052;-65
2022/05/27 03:45:10;;;;;;;12.02;4.13;;;12.10;99.90;;;;;;5114747;28;20055;-65
2022/05/27 03:47:38;;;;;;;12.90;4.18;;;12.10;99.90;;;;;;5146074;27;20496;-66
2022/05/27 03:50:05;;;;;;;16.80;4.50;;;12.10;99.90;;;;;;5113224;28;20055;-65
2022/05/27 03:52:39;;;;;;;14.77;4.22;;;12.20;99.90;;;;;;5115049;28;20085;-65
2022/05/27 03:55:07;;;;;;;16.17;4.03;;;12.20;99.90;;;;;;5095399;28;20495;-66
2022/05/27 03:57:33;;;;;;;13.50;3.80;;;12.20;99.90;;;;;;5127379;27;20113;-66
2022/05/27 03:59:59;;;;;;;15.73;4.30;;;12.30;99.90;;;;;;5095555;28;20056;-65
2022/05/27 04:02:24;;;;;;;11.43;4.28;;;12.30;99.90;;;;;;5130306;27;20051;-66
2022/05/27 04:04:50;;;;;;;16.35;3.92;;;12.30;99.90;;;;;;5147794;27;20123;-66
2022/05/27 04:07:16;;;;;;;15.68;4.10;;;12.30;99.90;;;;;;5113152;28;20054;-66
2022/05/27 04:09:41;;;;;;;12.80;4.55;;;12.40;99.90;;;;;;5096586;28;20044;-65
2022/05/27 04:12:07;;;;;;;11.20;3.78;;;12.40;99.90;;;;;;5115376;28;20709;-65
2022/05/27 04:14:33;;;;;;;17.50;4.30;;;12.40;99.90;;;;;;5114217;28;20404;-65
2022/05/27 04:19:43;;;;;;;17.50;3.80;;;12.40;99.90;;;;;;5101542;28;20048;-65
2022/05/27 04:22:09;;;;;;;13.98;3.60;;;12.40;99.90;;;;;;5147644;27;20348;-65
2022/05/27 04:24:35;;;;;;;17.17;4.50;;;12.40;99.90;;;;;;5147365;27;20100;-66
2022/05/27 04:27:08;;;;;;;12.65;3.50;;;12.40;99.90;;;;;;5112991;28;20050;-66
2022/05/27 04:29:38;;;;;;;12.45;3.42;;;12.40;99.90;;;;;;5111545;28;20048;-65
2022/05/27 04:32:04;;;;;;;12.77;3.85;;;12.40;99.90;;;;;;5099797;28;20040;-65
2022/05/27 04:34:29;;;;;;;16.70;4.13;;;12.50;99.90;;;;;;5126741;27;20538;-66
2022/05/27 04:36:55;;;;;;;6.38;2.90;;;12.50;99.90;;;;;;5109890;28;20104;-66
2022/05/27 04:39:20;;;;;;;10.70;3.20;;;12.50;99.90;;;;;;5106044;28;20048;-66
2022/05/27 04:41:46;;;;;;;9.60;2.88;;;12.50;99.90;;;;;;5126886;27;20097;-65
2022/05/27 04:44:12;;;;;;;9.52;2.78;;;12.50;99.90;;;;;;5092588;28;20093;-65
2022/05/27 04:46:38;;;;;;;13.77;3.92;;;12.60;99.90;;;;;;5092831;28;20048;-66
2022/05/27 04:49:03;;;;;;;10.93;3.10;;;12.50;99.90;;;;;;5104991;28;20047;-66
2022/05/27 04:51:29;;;;;;;12.77;3.10;;;12.60;99.90;;;;;;5147443;27;20513;-66
2022/05/27 04:53:55;;;;;;;19.50;3.30;;;12.60;99.90;;;;;;5113871;28;20083;-65
2022/05/27 04:56:25;;;;;;;9.40;2.40;;;12.60;99.90;;;;;;5111008;28;20062;-65
2022/05/27 04:58:51;;;;;;;9.40;2.75;;;12.60;99.90;;;;;;5112108;28;20047;-65
2022/05/27 05:01:16;;;;;;;13.10;3.03;;;12.60;99.90;;;;;;5101598;28;20055;-65
2022/05/27 05:03:42;;;;;;;13.18;3.60;;;12.60;99.90;;;;;;5107381;28;20047;-65
2022/05/27 05:06:07;;;;;;;12.02;3.42;;;12.60;99.90;;;;;;5105986;28;20067;-65
2022/05/27 05:08:34;;;;;;;10.30;2.67;;;12.60;99.90;;;;;;5093151;28;20500;-65
2022/05/27 05:11:04;;;;;;;11.05;2.75;;;12.60;99.90;;;;;;5096713;28;20047;-64
2022/05/27 05:13:31;;;;;;;12.20;2.95;;;12.60;99.90;;;;;;5113450;28;20556;-65
2022/05/27 05:15:58;;;;;;;14.38;2.63;;;12.60;99.90;;;;;;5113426;28;20047;-65
2022/05/27 05:18:24;;;;;;;17.73;3.08;;;12.60;99.90;;;;;;5113280;28;20520;-65
2022/05/27 05:20:50;;;;;;;7.15;2.10;;;12.60;99.90;;;;;;5105680;28;20079;-65
2022/05/27 05:23:15;;;;;;;11.90;3.00;;;12.70;99.90;;;;;;5093163;28;20091;-65
2022/05/27 05:25:41;;;;;;;8.95;2.70;;;12.70;99.90;;;;;;5105471;28;20048;-65
2022/05/27 05:28:07;;;;;;;13.43;3.28;;;12.80;99.90;;;;;;5099555;28;20048;-64
2022/05/27 05:30:32;;;;;;;11.85;2.67;;;12.90;99.90;;;;;;5087757;28;20484;-65
2022/05/27 05:32:59;;;;;;;10.30;2.47;;;13.00;99.90;;;;;;5081353;28;20130;-65
2022/05/27 05:35:25;;;;;;;12.35;3.17;;;13.10;99.90;;;;;;5079917;28;20569;-66
2022/05/27 05:37:52;;;;;;;15.50;3.13;;;13.40;99.90;;;;;;5093936;28;20047;-65
2022/05/27 05:40:18;;;;;;;8.13;2.65;;;13.70;99.90;;;;;;5083469;28;20072;-65
2022/05/27 05:42:46;;;;;;;10.38;2.70;;;14.30;99.90;;;;;;5093390;28;20040;-65
2022/05/27 05:45:37;;;;;;;7.95;2.45;;;14.70;99.90;;;;;;5093826;28;20063;-65
2022/05/27 05:48:03;;;;;;;11.55;2.80;;;14.80;99.90;;;;;;5083268;28;20044;-65
2022/05/27 05:50:30;;;;;;;9.25;2.47;;;14.90;99.90;;;;;;5087485;28;20055;-64
2022/05/27 05:52:56;;;;;;;11.23;2.83;;;14.60;99.90;;;;;;5089746;28;20048;-65
2022/05/27 05:55:22;;;;;;;11.20;2.50;;;14.40;99.90;;;;;;5087609;28;20400;-65
2022/05/27 05:57:49;;;;;;;10.18;2.70;;;14.20;99.90;;;;;;5104090;28;20079;-64
2022/05/27 06:00:20;;;;;;;10.48;2.70;;;14.10;99.90;;;;;;5090275;28;20075;-65
2022/05/27 06:02:46;;;;;;;12.52;3.25;;;14.10;99.90;;;;;;5092249;28;20396;-65
2022/05/27 06:05:12;;;;;;;14.23;3.00;;;15.10;99.90;;;;;;5091516;28;20066;-65
2022/05/27 06:07:37;;;;;;;12.95;2.42;;;16.10;99.90;;;;;;5093699;28;20511;-65
2022/05/27 06:10:05;;;;;;;10.57;2.60;;;17.00;99.90;;;;;;5096159;28;20368;-65
2022/05/27 06:12:33;;;;;;;7.03;2.30;;;17.70;99.90;;;;;;5092826;28;20492;-66
2022/05/27 06:15:00;;;;;;;8.35;2.50;;;18.00;99.90;;;;;;5097455;28;20052;-65
2022/05/27 06:17:27;;;;;;;10.88;2.63;;;18.10;99.90;;;;;;5093745;28;20477;-67
2022/05/27 06:19:52;;;;;;;7.32;2.17;;;17.50;99.90;;;;;;5110012;28;20047;-65
2022/05/27 06:22:18;;;;;;;7.93;2.38;;;17.30;99.90;;;;;;5097660;28;20044;-66
2022/05/27 06:24:43;;;;;;;12.15;2.47;;;17.30;99.90;;;;;;5128090;27;20492;-66
2022/05/27 06:27:09;;;;;;;9.02;2.22;;;17.30;99.90;;;;;;5098819;28;20071;-65
2022/05/27 06:35:03;;;;;;;9.07;2.95;;;16.00;99.90;;;;;;5096138;28;20052;-65
2022/05/27 06:37:29;;;;;;;10.20;2.33;;;15.60;99.90;;;;;;5097629;28;20052;-64
2022/05/27 06:39:54;;;;;;;10.60;2.20;;;15.30;99.90;;;;;;5105648;28;20494;-66
2022/05/27 06:42:22;;;;;;;11.40;2.58;;;15.10;99.90;;;;;;5115837;28;20082;-65
2022/05/27 06:44:48;;;;;;;6.22;2.13;;;15.00;99.90;;;;;;5116113;28;20043;-65
2022/05/27 06:47:14;;;;;;;13.10;2.40;;;14.90;99.90;;;;;;5104167;28;20515;-66
2022/05/27 06:49:43;;;;;;;10.25;2.40;;;15.10;99.90;;;;;;5095854;28;20488;-66
2022/05/27 06:52:10;;;;;;;10.50;2.60;;;15.30;99.90;;;;;;5095646;28;20091;-65
2022/05/27 06:54:36;;;;;;;10.80;2.60;;;15.20;99.90;;;;;;5093999;28;20488;-66
2022/05/27 06:57:04;;;;;;;10.98;2.30;;;15.30;99.90;;;;;;5094129;28;20054;-65
2022/05/27 06:59:30;;;;;;;12.60;2.33;;;15.20;99.90;;;;;;5098309;28;20056;-66
2022/05/27 07:01:56;;;;;;;12.82;2.60;;;15.20;99.90;;;;;;5147012;27;20051;-65
2022/05/27 07:04:22;;;;;;;10.57;2.70;;;16.60;99.90;;;;;;5115816;28;20087;-66
2022/05/27 07:06:48;;;;;;;7.68;2.40;;;15.50;99.90;;;;;;5115661;28;20523;-66
2022/05/27 07:09:17;;;;;;;11.00;2.58;;;15.20;99.90;;;;;;5097033;28;20546;-67
2022/05/27 07:11:46;;;;;;;10.43;2.63;;;15.20;99.90;;;;;;5095791;28;20136;-66
2022/05/27 07:14:13;;;;;;;9.18;2.72;;;15.60;99.90;;;;;;5093219;28;20071;-65
2022/05/27 07:16:40;;;;;;;10.23;2.53;;;15.10;99.90;;;;;;5093301;28;20047;-66
2022/05/27 07:19:06;;;;;;;12.05;3.05;;;15.10;99.90;;;;;;5093632;28;20606;-65
2022/05/27 07:21:39;;;;;;;10.07;2.75;;;15.10;99.90;;;;;;5093985;28;20056;-65
2022/05/27 07:24:09;;;;;;;10.38;2.53;;;15.10;99.90;;;;;;5094943;28;20056;-67
2022/05/27 07:26:35;;;;;;;10.18;2.60;;;15.10;99.90;;;;;;5094994;28;20051;-66
2022/05/27 07:29:01;;;;;;;10.38;2.70;;;15.20;99.90;;;;;;5094271;28;20496;-65
2022/05/27 07:31:27;;;;;;;6.47;2.20;;;15.30;99.90;;;;;;5093168;28;20132;-66
2022/05/27 07:33:53;;;;;;;9.20;2.65;;;15.20;99.90;;;;;;5093801;28;20488;-66
2022/05/27 07:36:18;;;;;;;7.40;2.10;;;15.20;99.90;;;;;;5092922;28;20504;-65
2022/05/27 07:38:44;;;;;;;8.50;2.38;;;15.30;99.90;;;;;;5092965;28;20502;-66
2022/05/27 07:41:11;;;;;;;10.60;2.70;;;15.20;99.90;;;;;;5093823;28;20496;-66
2022/05/27 07:43:38;;;;;;;9.05;2.42;;;15.10;99.90;;;;;;5093615;28;20496;-66
2022/05/27 07:46:04;;;;;;;11.25;2.58;;;15.10;99.90;;;;;;5092441;28;20047;-65
2022/05/27 07:48:30;;;;;;;10.13;2.17;;;15.20;99.90;;;;;;5093302;28;20060;-64
2022/05/27 07:50:55;;;;;;;8.48;2.40;;;15.30;99.90;;;;;;5094904;28;20070;-66
2022/05/27 07:53:22;;;;;;;8.30;2.80;;;15.30;99.90;;;;;;5093145;28;20051;-66
2022/05/27 07:55:47;;;;;;;7.97;2.55;;;15.30;99.90;;;;;;5093280;28;20076;-65
2022/05/27 07:58:13;;;;;;;8.38;2.10;;;15.40;99.90;;;;;;5092330;28;20084;-65
2022/05/27 08:00:39;;;;;;;9.23;2.45;;;15.50;99.90;;;;;;5092875;28;20056;-65
2022/05/27 08:03:06;;;;;;;8.25;2.40;;;15.60;99.90;;;;;;5091750;28;20044;-66
2022/05/27 08:05:32;;;;;;;8.50;2.50;;;15.80;99.90;;;;;;5094170;28;20075;-66
2022/05/27 08:08:00;;;;;;;9.80;2.88;;;15.90;99.90;;;;;;5092307;28;20048;-66
2022/05/27 08:10:30;;;;;;;8.18;2.13;;;16.00;99.90;;;;;;5094387;28;20052;-66
2022/05/27 08:12:56;;;;;;;8.98;2.50;;;16.00;99.90;;;;;;5094165;28;20056;-67
2022/05/27 08:15:22;;;;;;;9.25;2.90;;;16.00;99.90;;;;;;5092927;28;20059;-66
2022/05/27 08:17:48;;;;;;;8.15;2.60;;;15.80;99.90;;;;;;5108809;28;20056;-65
2022/05/27 08:20:18;;;;;;;12.82;2.40;;;15.60;99.90;;;;;;5092630;28;20142;-65
2022/05/27 08:22:47;;;;;;;7.20;2.05;;;15.60;99.90;;;;;;5093381;28;20036;-67
2022/05/27 08:25:14;;;;;;;8.75;2.33;;;15.70;99.90;;;;;;5093862;28;20143;-66
2022/05/27 08:27:42;;;;;;;9.07;2.40;;;16.00;99.90;;;;;;5093607;28;20411;-66
2022/05/27 08:30:10;;;;;;;9.23;2.28;;;16.20;99.90;;;;;;5093568;28;20036;-66
2022/05/27 08:32:36;;;;;;;5.95;1.73;;;16.30;99.90;;;;;;5091953;28;20158;-66
2022/05/27 08:38:07;;;;;;;6.00;1.90;;;16.20;99.90;;;;;;5093064;28;20052;-65
2022/05/27 08:40:46;;;;;;;6.75;1.92;;;16.00;99.90;;;;;;5094141;28;20048;-65
2022/05/27 08:43:18;;;;;;;11.15;2.03;;;15.90;87.20;;;;;;5092137;28;20051;-66
2022/05/27 08:45:52;;;;;;;;;;;15.90;84.70;;;;;;5108874;28;20150;-65
2022/05/27 08:48:19;;;;;;;8.75;1.90;;;15.90;71.80;;;;;;5091944;28;19966;-65
2022/05/27 08:50:44;;;;;;;6.13;1.67;;;15.90;99.90;;;;;;5108971;28;20052;-65
2022/05/27 08:53:24;;;;;;;9.50;2.17;;;15.90;99.90;;;;;;5092139;28;20101;-65
2022/05/27 09:01:52;;;;;;;9.02;2.53;;;16.20;92.00;;;;;;5089651;28;20041;-65
2022/05/27 09:04:17;;;;;;;8.95;2.60;;;16.00;98.10;;;;;;5092061;28;20062;-65
2022/05/27 09:06:51;;;;;;;8.55;2.30;;;16.10;99.90;;;;;;5091881;28;20051;-66
2022/05/27 09:09:26;;;;;;;6.03;2.00;;;16.10;92.50;;;;;;5099952;28;20127;-66
2022/05/27 09:12:18;;;;;;;9.55;2.33;;;16.00;90.90;;;;;;5090817;28;20044;-66
2022/05/27 09:14:55;;;;;;;8.50;2.17;;;15.90;85.90;;;;;;5090870;28;20537;-67
2022/05/27 09:17:48;;;;;;;9.02;2.13;;;15.50;99.90;;;;;;5090020;28;20048;-65
2022/05/27 09:20:17;;;;;;;8.95;2.13;;;15.30;90.40;;;;;;5061146;28;20044;-66
2022/05/27 09:23:15;;;;;;;6.97;1.70;;;15.20;99.90;;;;;;5123566;27;20079;-66
2022/05/27 09:25:49;;;;;;;6.57;2.13;;;15.50;99.90;;;;;;5106488;28;20040;-66
2022/05/27 09:29:02;;;;;;;7.18;1.80;;;15.80;86.30;;;;;;5105434;28;20052;-67
2022/05/27 09:31:45;;;;;;;5.47;1.38;;;15.80;93.60;;;;;;5070139;28;20052;-65
2022/05/27 09:34:12;;;;;;;4.95;1.60;;;15.70;90.20;;;;;;5091804;28;20044;-66
2022/05/27 09:36:46;;;;;;;6.15;1.50;;;15.80;99.90;;;;;;5091653;28;20476;-65
2022/05/27 09:39:14;;;;;;;8.27;1.88;;;16.00;91.60;;;;;;5091391;28;20550;-69
2022/05/27 09:41:50;;;;;;;10.70;1.92;;;16.10;95.00;;;;;;5093247;28;20140;-66
2022/05/27 09:44:26;;;;;;;6.70;1.63;;;16.20;85.30;;;;;;5096492;28;20060;-66
2022/05/27 09:46:52;;;;;;;7.90;1.58;;;16.20;85.90;;;;;;5097059;28;20044;-65
2022/05/27 09:49:18;;;;;;;7.10;1.98;;;16.20;99.90;;;;;;5095458;28;20048;-65
2022/05/27 09:51:44;;;;;;;8.27;2.20;;;16.10;99.90;;;;;;5128233;27;20384;-66
2022/05/27 09:54:43;;;;;;;7.63;2.47;;;16.10;99.90;;;;;;5107227;28;20516;-65
2022/05/27 09:57:11;;;;;;;8.85;2.03;;;16.10;97.60;;;;;;5094592;28;20048;-65
2022/05/27 09:59:49;;;;;;;8.40;1.90;;;16.00;99.90;;;;;;5093539;28;20052;-65
2022/05/27 10:02:25;;;;;;;9.13;2.15;;;16.00;99.90;;;;;;5112715;27;20495;-66
2022/05/27 10:05:13;;;;;;;7.53;1.77;;;15.90;99.30;;;;;;5095835;28;20052;-65
2022/05/27 10:07:53;;;;;;;7.80;1.60;;;15.80;90.70;;;;;;5096440;28;20063;-65
2022/05/27 10:10:28;;;;;;;7.05;2.13;;;15.90;96.20;;;;;;5094407;28;20092;-65
2022/05/27 10:12:56;;;;;;;8.57;2.10;;;16.00;99.80;;;;;;5145206;27;20384;-65
2022/05/27 10:15:28;;;;;;;5.15;1.65;;;16.10;99.60;;;;;;5140348;27;20127;-66
2022/05/27 10:17:53;;;;;;;;;;;16.10;94.70;;;;;;5134989;27;20055;-65
2022/05/27 10:20:29;;;;;;;6.82;1.55;;;16.00;75.60;;;;;;5111876;28;19982;-65
2022/05/27 10:23:22;;;;;;;7.65;1.60;;;15.90;84.40;;;;;;5086991;28;20044;-66
2022/05/27 10:25:48;;;;;;;7.88;1.88;;;16.00;83.50;;;;;;5108251;28;20087;-65
2022/05/27 10:28:24;;;;;;;9.90;2.08;;;16.20;98.50;;;;;;5149798;27;20094;-65
2022/05/27 10:31:03;;;;;;;5.65;1.63;;;16.20;90.90;;;;;;5115920;28;20131;-65
2022/05/27 10:33:40;;;;;;;10.80;1.80;;;15.90;79.90;;;;;;5116718;28;20127;-65
2022/05/27 10:36:27;;;;;;;6.35;2.00;;;15.60;83.80;;;;;;5090193;28;20044;-66
2022/05/27 10:39:04;;;;;;;8.52;1.80;;;15.70;77.90;;;;;;5075008;28;20342;-65
2022/05/27 10:41:32;;;;;;;6.88;1.92;;;15.70;92.90;;;;;;5088692;28;20059;-65
2022/05/27 10:44:32;;;;;;;6.20;1.45;;;15.90;95.60;;;;;;5095744;28;20060;-65
2022/05/27 10:46:59;;;;;;;5.32;1.65;;;16.00;78.30;;;;;;5095472;28;20056;-65
2022/05/27 10:50:06;;;;;;;11.55;2.25;;;16.30;91.90;;;;;;5116324;28;20484;-65
2022/05/27 10:53:16;;;;;;;5.82;2.08;;;16.40;84.60;;;;;;5109206;28;20502;-66
2022/05/27 10:56:06;;;;;;;9.35;2.10;;;16.20;79.90;;;;;;5075996;28;20049;-66
2022/05/27 11:02:05;;;;;;;9.77;2.15;;;15.90;86.20;;;;;;5092955;28;20040;-66
2022/05/27 11:05:13;;;;;;;10.10;2.58;;;15.80;97.00;;;;;;5081126;28;20060;-65
2022/05/27 11:08:03;;;;;;;8.63;2.00;;;15.80;96.60;;;;;;5070305;28;20098;-65
2022/05/27 11:10:50;;;;;;;11.00;1.88;;;15.90;98.00;;;;;;5094440;28;20035;-65
2022/05/27 11:16:29;;;;;;;8.73;2.30;;;16.00;98.90;;;;;;5092789;28;20489;-65
2022/05/27 11:19:15;;;;;;;7.82;2.58;;;16.20;99.90;;;;;;5109853;28;20041;-66
2022/05/27 11:22:09;;;;;;;9.82;2.05;;;16.20;94.60;;;;;;5094242;28;20437;-65
2022/05/27 11:24:53;;;;;;;7.35;1.85;;;16.30;90.50;;;;;;5093556;28;20055;-64
2022/05/27 11:27:21;;;;;;;8.90;2.00;;;16.10;95.70;;;;;;5093532;28;20123;-65
2022/05/27 11:30:07;;;;;;;7.45;1.92;;;16.10;96.40;;;;;;5092991;28;20056;-65
2022/05/27 11:32:44;;;;;;;13.20;2.50;;;15.90;90.30;;;;;;5106927;28;20053;-65
2022/05/27 11:35:26;;;;;;;8.50;1.67;;;15.90;94.90;;;;;;5135249;27;20056;-65
2022/05/27 11:37:57;;;;;;;10.77;2.47;;;15.80;95.60;;;;;;5094929;28;20069;-65
2022/05/27 11:40:43;;;;;;;8.10;2.00;;;15.60;99.90;;;;;;5094770;28;20442;-65
2022/05/27 11:43:41;;;;;;;8.32;1.98;;;15.50;99.90;;;;;;5094254;28;20105;-66
2022/05/27 11:46:39;;;;;;;8.43;2.10;;;15.70;99.90;;;;;;5109911;28;20413;-66
2022/05/27 11:49:29;;;;;;;6.07;1.83;;;16.00;92.80;;;;;;5094327;28;20118;-65
2022/05/27 11:52:28;;;;;;;7.53;1.80;;;15.80;91.60;;;;;;5094359;28;20056;-64
2022/05/27 11:55:12;;;;;;;8.23;1.85;;;15.80;84.80;;;;;;5094429;28;20101;-65
2022/05/27 11:57:38;;;;;;;6.93;1.92;;;15.40;91.50;;;;;;5092883;28;20503;-66
2022/05/27 12:00:11;;;;;;;6.05;2.00;;;16.00;94.30;;;;;;5092858;28;20048;-66
2022/05/27 12:02:45;;;;;;;11.88;3.50;;;16.10;96.70;;;;;;5092190;28;20087;-65
2022/05/27 12:05:22;;;;;;;9.70;3.10;;;16.20;90.50;;;;;;5110376;28;20047;-64
2022/05/27 12:08:21;;;;;;;7.18;1.60;;;16.10;91.30;;;;;;5114850;28;20124;-65
2022/05/27 12:10:48;;;;;;;6.25;1.73;;;16.30;99.80;;;;;;5114763;28;20051;-65
2022/05/27 12:13:40;;;;;;;7.88;1.90;;;16.50;85.10;;;;;;5114424;28;20055;-64
2022/05/27 12:16:12;;;;;;;7.60;2.05;;;16.90;98.80;;;;;;5086926;28;20082;-65
2022/05/27 12:18:57;;;;;;;11.40;2.13;;;16.90;90.00;;;;;;5092503;28;20087;-64
2022/05/27 12:21:28;;;;;;;9.18;2.10;;;16.80;84.10;;;;;;5073966;28;20106;-65
2022/05/27 12:23:58;;;;;;;8.52;1.95;;;16.70;89.70;;;;;;5073755;28;20121;-65
2022/05/27 12:26:33;;;;;;;9.68;1.95;;;16.70;89.50;;;;;;5074076;28;20099;-65
2022/05/27 12:29:05;;;;;;;9.68;2.17;;;16.70;88.70;;;;;;5074150;28;20147;-65
2022/05/27 12:31:32;;;;;;;7.05;2.30;;;16.60;91.50;;;;;;5106178;28;20054;-65
2022/05/27 12:34:18;;;;;;;8.32;2.15;;;16.40;92.20;;;;;;5110567;28;20048;-65
2022/05/27 12:36:44;;;;;;;9.57;1.90;;;16.50;91.50;;;;;;5102909;28;20063;-66
2022/05/27 12:39:09;;;;;;;6.70;1.90;;;16.30;92.40;;;;;;5079913;28;20060;-65
2022/05/27 12:41:41;;;;;;;6.53;2.05;;;16.30;94.50;;;;;;5078804;28;20051;-66
2022/05/27 12:44:22;;;;;;;8.68;2.30;;;16.10;95.50;;;;;;5075745;28;20048;-65
2022/05/27 12:46:54;;;;;;;10.98;2.00;;;16.20;91.90;;;;;;5075954;28;20058;-66
2022/05/27 12:49:34;;;;;;;10.73;2.33;;;16.10;96.90;;;;;;5087108;28;20052;-65
2022/05/27 12:52:01;;;;;;;7.97;2.15;;;16.30;93.70;;;;;;5100673;28;20052;-66
2022/05/27 12:54:42;;;;;;;7.80;2.17;;;16.20;84.70;;;;;;5088790;28;20226;-65
2022/05/27 13:03:41;;;;;;;8.35;2.00;;;16.30;90.90;;;;;;5093168;28;20434;-65
2022/05/27 13:06:14;;;;;;;9.25;2.25;;;16.40;93.60;;;;;;5092140;28;20101;-65
2022/05/27 13:08:58;;;;;;;11.48;2.30;;;16.50;90.10;;;;;;5092478;28;20435;-65
2022/05/27 13:11:25;;;;;;;10.57;2.05;;;16.40;81.20;;;;;;5093231;28;20099;-65
2022/05/27 13:13:59;;;;;;;9.18;2.00;;;16.30;94.40;;;;;;5092056;28;20048;-65
2022/05/27 13:16:43;;;;;;;8.98;2.25;;;16.10;94.90;;;;;;5092489;28;20059;-65
2022/05/27 13:19:22;;;;;;;7.70;2.00;;;16.00;97.70;;;;;;5091989;28;20134;-65
2022/05/27 13:21:54;;;;;;;12.05;2.40;;;15.80;99.10;;;;;;5111810;28;20449;-66
2022/05/27 13:24:20;;;;;;;12.63;2.58;;;15.80;99.90;;;;;;5101260;28;20044;-64
2022/05/27 13:26:51;;;;;;;10.52;2.08;;;15.90;99.90;;;;;;5109203;28;20087;-64
2022/05/27 13:29:26;;;;;;;7.57;2.03;;;16.10;99.90;;;;;;5104060;28;20126;-65
2022/05/27 13:32:13;;;;;;;12.45;2.35;;;16.40;99.90;;;;;;5112593;28;20055;-66
2022/05/27 13:34:47;;;;;;;8.85;1.98;;;16.20;97.50;;;;;;5106068;28;20442;-65
2022/05/27 13:37:19;;;;;;;6.30;1.70;;;16.20;82.80;;;;;;5092872;28;20048;-65
2022/05/27 13:39:52;;;;;;;8.98;1.92;;;16.20;91.00;;;;;;5092234;28;20048;-66
2022/05/27 13:42:28;;;;;;;10.65;2.17;;;16.00;92.60;;;;;;5092725;28;20510;-65
2022/05/27 13:44:55;;;;;;;5.72;1.67;;;16.00;97.90;;;;;;5090767;28;20539;-65
2022/05/27 13:47:25;;;;;;;9.43;1.80;;;16.10;97.90;;;;;;5092045;28;20460;-65
2022/05/27 13:49:50;;;;;;;6.70;2.22;;;16.00;95.10;;;;;;5095704;28;20125;-66